sensor_id;sensor_type;location;lat;lon;timestamp;P1;durP1;ratioP1;P2;durP2;ratioP2
9420;SDS011;4749;51.398;5.466;2022-10-26T00:01:09;7.77;;;4.00;;
9420;SDS011;4749;51.398;5.466;2022-10-26T00:03:40;5.93;;;4.10;;
9420;SDS011;4749;51.398;5.466;2022-10-26T00:06:13;6.80;;;4.20;;
9420;SDS011;4749;51.398;5.466;2022-10-26T00:08:45;7.57;;;4.13;;
9420;SDS011;4749;51.398;5.466;2022-10-26T00:11:13;8.13;;;4.67;;
9420;SDS011;4749;51.398;5.466;2022-10-26T00:13:41;6.80;;;4.30;;
9420;SDS011;4749;51.398;5.466;2022-10-26T00:16:09;7.97;;;5.13;;
9420;SDS011;4749;51.398;5.466;2022-10-26T00:18:42;7.90;;;4.57;;
9420;SDS011;4749;51.398;5.466;2022-10-26T00:21:11;8.00;;;4.83;;
9420;SDS011;4749;51.398;5.466;2022-10-26T00:23:38;9.97;;;4.97;;
9420;SDS011;4749;51.398;5.466;2022-10-26T00:26:06;7.73;;;4.67;;
9420;SDS011;4749;51.398;5.466;2022-10-26T00:28:34;7.80;;;4.57;;
9420;SDS011;4749;51.398;5.466;2022-10-26T00:31:02;11.20;;;4.93;;
9420;SDS011;4749;51.398;5.466;2022-10-26T00:33:36;12.47;;;4.87;;
9420;SDS011;4749;51.398;5.466;2022-10-26T00:36:03;8.03;;;4.73;;
9420;SDS011;4749;51.398;5.466;2022-10-26T00:38:31;6.43;;;4.40;;
9420;SDS011;4749;51.398;5.466;2022-10-26T00:40:58;10.87;;;4.93;;
9420;SDS011;4749;51.398;5.466;2022-10-26T00:45:55;11.37;;;4.60;;
9420;SDS011;4749;51.398;5.466;2022-10-26T00:48:25;9.95;;;4.43;;
9420;SDS011;4749;51.398;5.466;2022-10-26T00:51:02;7.43;;;4.70;;
9420;SDS011;4749;51.398;5.466;2022-10-26T00:53:38;8.33;;;4.67;;
9420;SDS011;4749;51.398;5.466;2022-10-26T00:56:05;9.60;;;4.80;;
9420;SDS011;4749;51.398;5.466;2022-10-26T00:58:33;7.20;;;4.37;;
9420;SDS011;4749;51.398;5.466;2022-10-26T01:01:01;8.60;;;4.87;;
9420;SDS011;4749;51.398;5.466;2022-10-26T01:03:29;9.07;;;5.00;;
9420;SDS011;4749;51.398;5.466;2022-10-26T01:05:58;7.57;;;4.40;;
9420;SDS011;4749;51.398;5.466;2022-10-26T01:08:25;6.93;;;4.88;;
9420;SDS011;4749;51.398;5.466;2022-10-26T01:10:54;5.67;;;4.37;;
9420;SDS011;4749;51.398;5.466;2022-10-26T01:13:27;8.30;;;4.90;;
9420;SDS011;4749;51.398;5.466;2022-10-26T01:30:18;8.83;;;4.73;;
9420;SDS011;4749;51.398;5.466;2022-10-26T01:36:03;9.00;;;5.00;;
9420;SDS011;4749;51.398;5.466;2022-10-26T01:38:53;7.47;;;4.73;;
9420;SDS011;4749;51.398;5.466;2022-10-26T01:41:50;6.80;;;4.60;;
9420;SDS011;4749;51.398;5.466;2022-10-26T01:44:40;7.73;;;5.27;;
9420;SDS011;4749;51.398;5.466;2022-10-26T01:47:23;8.63;;;5.20;;
9420;SDS011;4749;51.398;5.466;2022-10-26T01:49:52;8.90;;;5.30;;
9420;SDS011;4749;51.398;5.466;2022-10-26T01:52:23;9.83;;;5.73;;
9420;SDS011;4749;51.398;5.466;2022-10-26T01:54:51;8.77;;;5.47;;
9420;SDS011;4749;51.398;5.466;2022-10-26T01:57:28;9.30;;;5.33;;
9420;SDS011;4749;51.398;5.466;2022-10-26T02:00:09;14.37;;;6.50;;
9420;SDS011;4749;51.398;5.466;2022-10-26T02:17:37;12.47;;;6.00;;
9420;SDS011;4749;51.398;5.466;2022-10-26T02:20:42;9.33;;;5.90;;
9420;SDS011;4749;51.398;5.466;2022-10-26T02:23:15;9.45;;;5.68;;
9420;SDS011;4749;51.398;5.466;2022-10-26T02:25:48;9.90;;;6.00;;
9420;SDS011;4749;51.398;5.466;2022-10-26T02:28:26;12.80;;;6.40;;
9420;SDS011;4749;51.398;5.466;2022-10-26T02:31:00;8.23;;;6.07;;
9420;SDS011;4749;51.398;5.466;2022-10-26T02:33:32;6.73;;;5.07;;
9420;SDS011;4749;51.398;5.466;2022-10-26T02:36:06;9.17;;;5.07;;
9420;SDS011;4749;51.398;5.466;2022-10-26T02:38:38;10.53;;;5.50;;
9420;SDS011;4749;51.398;5.466;2022-10-26T02:41:09;6.70;;;4.47;;
9420;SDS011;4749;51.398;5.466;2022-10-26T02:43:47;6.27;;;4.90;;
9420;SDS011;4749;51.398;5.466;2022-10-26T02:46:22;7.70;;;5.77;;
9420;SDS011;4749;51.398;5.466;2022-10-26T02:48:53;11.37;;;5.20;;
9420;SDS011;4749;51.398;5.466;2022-10-26T02:57:25;6.70;;;4.40;;
9420;SDS011;4749;51.398;5.466;2022-10-26T03:00:06;9.13;;;4.57;;
9420;SDS011;4749;51.398;5.466;2022-10-26T03:02:44;7.40;;;4.43;;
9420;SDS011;4749;51.398;5.466;2022-10-26T03:05:22;8.50;;;4.33;;
9420;SDS011;4749;51.398;5.466;2022-10-26T03:07:53;7.43;;;4.00;;
9420;SDS011;4749;51.398;5.466;2022-10-26T03:10:21;6.80;;;4.10;;
9420;SDS011;4749;51.398;5.466;2022-10-26T03:12:48;7.50;;;3.70;;
9420;SDS011;4749;51.398;5.466;2022-10-26T03:15:16;7.17;;;3.77;;
9420;SDS011;4749;51.398;5.466;2022-10-26T03:17:43;8.10;;;3.87;;
9420;SDS011;4749;51.398;5.466;2022-10-26T03:20:11;6.40;;;4.40;;
9420;SDS011;4749;51.398;5.466;2022-10-26T03:22:38;8.27;;;4.17;;
9420;SDS011;4749;51.398;5.466;2022-10-26T03:25:05;7.47;;;3.40;;
9420;SDS011;4749;51.398;5.466;2022-10-26T03:27:34;7.23;;;3.80;;
9420;SDS011;4749;51.398;5.466;2022-10-26T03:30:01;10.73;;;3.93;;
9420;SDS011;4749;51.398;5.466;2022-10-26T03:32:29;5.83;;;3.50;;
9420;SDS011;4749;51.398;5.466;2022-10-26T03:34:56;7.63;;;3.03;;
9420;SDS011;4749;51.398;5.466;2022-10-26T03:37:22;5.03;;;2.70;;
9420;SDS011;4749;51.398;5.466;2022-10-26T03:39:50;7.30;;;3.27;;
9420;SDS011;4749;51.398;5.466;2022-10-26T03:42:17;6.73;;;2.90;;
9420;SDS011;4749;51.398;5.466;2022-10-26T03:44:44;5.13;;;2.83;;
9420;SDS011;4749;51.398;5.466;2022-10-26T03:47:12;5.27;;;3.20;;
9420;SDS011;4749;51.398;5.466;2022-10-26T03:49:39;10.53;;;3.37;;
9420;SDS011;4749;51.398;5.466;2022-10-26T03:52:06;7.80;;;2.93;;
9420;SDS011;4749;51.398;5.466;2022-10-26T03:54:33;6.60;;;3.00;;
9420;SDS011;4749;51.398;5.466;2022-10-26T03:57:00;4.63;;;3.17;;
9420;SDS011;4749;51.398;5.466;2022-10-26T03:59:27;5.43;;;2.77;;
9420;SDS011;4749;51.398;5.466;2022-10-26T04:01:55;4.70;;;2.77;;
9420;SDS011;4749;51.398;5.466;2022-10-26T04:04:23;7.63;;;3.33;;
9420;SDS011;4749;51.398;5.466;2022-10-26T04:06:51;6.77;;;3.30;;
9420;SDS011;4749;51.398;5.466;2022-10-26T04:09:18;7.37;;;2.77;;
9420;SDS011;4749;51.398;5.466;2022-10-26T04:11:45;6.87;;;3.13;;
9420;SDS011;4749;51.398;5.466;2022-10-26T04:14:12;6.40;;;2.97;;
9420;SDS011;4749;51.398;5.466;2022-10-26T04:16:39;6.53;;;3.10;;
9420;SDS011;4749;51.398;5.466;2022-10-26T04:19:06;5.77;;;3.00;;
9420;SDS011;4749;51.398;5.466;2022-10-26T04:21:33;5.50;;;2.97;;
9420;SDS011;4749;51.398;5.466;2022-10-26T04:24:00;10.77;;;3.00;;
9420;SDS011;4749;51.398;5.466;2022-10-26T04:26:28;5.37;;;3.00;;
9420;SDS011;4749;51.398;5.466;2022-10-26T04:28:55;6.20;;;2.80;;
9420;SDS011;4749;51.398;5.466;2022-10-26T04:31:22;5.30;;;2.57;;
9420;SDS011;4749;51.398;5.466;2022-10-26T04:33:49;5.77;;;2.70;;
9420;SDS011;4749;51.398;5.466;2022-10-26T04:36:16;7.43;;;2.90;;
9420;SDS011;4749;51.398;5.466;2022-10-26T04:38:43;6.67;;;2.90;;
9420;SDS011;4749;51.398;5.466;2022-10-26T04:41:10;7.03;;;2.67;;
9420;SDS011;4749;51.398;5.466;2022-10-26T04:43:37;5.23;;;2.63;;
9420;SDS011;4749;51.398;5.466;2022-10-26T04:46:04;5.17;;;2.60;;
9420;SDS011;4749;51.398;5.466;2022-10-26T04:48:31;4.13;;;2.30;;
9420;SDS011;4749;51.398;5.466;2022-10-26T04:50:58;5.60;;;2.63;;
9420;SDS011;4749;51.398;5.466;2022-10-26T04:53:26;4.90;;;2.43;;
9420;SDS011;4749;51.398;5.466;2022-10-26T04:55:57;8.17;;;2.80;;
9420;SDS011;4749;51.398;5.466;2022-10-26T04:58:26;4.10;;;2.45;;
9420;SDS011;4749;51.398;5.466;2022-10-26T05:00:53;4.97;;;2.40;;
9420;SDS011;4749;51.398;5.466;2022-10-26T05:03:21;5.40;;;2.57;;
9420;SDS011;4749;51.398;5.466;2022-10-26T05:05:49;7.65;;;2.60;;
9420;SDS011;4749;51.398;5.466;2022-10-26T05:08:16;7.82;;;2.63;;
9420;SDS011;4749;51.398;5.466;2022-10-26T05:10:47;5.97;;;2.80;;
9420;SDS011;4749;51.398;5.466;2022-10-26T05:13:15;3.42;;;2.30;;
9420;SDS011;4749;51.398;5.466;2022-10-26T05:15:45;5.40;;;2.30;;
9420;SDS011;4749;51.398;5.466;2022-10-26T05:18:12;14.75;;;4.43;;
9420;SDS011;4749;51.398;5.466;2022-10-26T05:20:39;13.45;;;2.50;;
9420;SDS011;4749;51.398;5.466;2022-10-26T05:23:08;6.35;;;2.53;;
9420;SDS011;4749;51.398;5.466;2022-10-26T05:25:37;8.25;;;3.20;;
9420;SDS011;4749;51.398;5.466;2022-10-26T05:28:05;5.97;;;2.40;;
9420;SDS011;4749;51.398;5.466;2022-10-26T05:30:37;5.97;;;2.10;;
9420;SDS011;4749;51.398;5.466;2022-10-26T05:33:05;9.13;;;2.50;;
9420;SDS011;4749;51.398;5.466;2022-10-26T05:35:35;4.97;;;2.30;;
9420;SDS011;4749;51.398;5.466;2022-10-26T05:38:13;5.07;;;2.38;;
9420;SDS011;4749;51.398;5.466;2022-10-26T05:40:46;4.73;;;2.10;;
9420;SDS011;4749;51.398;5.466;2022-10-26T05:43:17;5.17;;;2.60;;
9420;SDS011;4749;51.398;5.466;2022-10-26T05:45:48;6.97;;;3.20;;
9420;SDS011;4749;51.398;5.466;2022-10-26T05:48:16;5.67;;;2.83;;
9420;SDS011;4749;51.398;5.466;2022-10-26T05:50:43;7.97;;;2.60;;
9420;SDS011;4749;51.398;5.466;2022-10-26T05:53:11;6.57;;;3.07;;
9420;SDS011;4749;51.398;5.466;2022-10-26T05:55:38;6.97;;;3.03;;
9420;SDS011;4749;51.398;5.466;2022-10-26T05:58:12;7.90;;;2.60;;
9420;SDS011;4749;51.398;5.466;2022-10-26T06:00:43;6.60;;;2.93;;
9420;SDS011;4749;51.398;5.466;2022-10-26T06:06:03;7.90;;;2.67;;
9420;SDS011;4749;51.398;5.466;2022-10-26T06:08:32;9.82;;;2.58;;
9420;SDS011;4749;51.398;5.466;2022-10-26T06:11:00;8.63;;;2.93;;
9420;SDS011;4749;51.398;5.466;2022-10-26T06:13:28;5.93;;;3.15;;
9420;SDS011;4749;51.398;5.466;2022-10-26T06:16:41;8.52;;;3.10;;
9420;SDS011;4749;51.398;5.466;2022-10-26T06:19:14;8.52;;;3.30;;
9420;SDS011;4749;51.398;5.466;2022-10-26T06:25:34;5.70;;;2.60;;
9420;SDS011;4749;51.398;5.466;2022-10-26T06:31:20;4.30;;;2.40;;
9420;SDS011;4749;51.398;5.466;2022-10-26T06:33:49;8.18;;;2.72;;
9420;SDS011;4749;51.398;5.466;2022-10-26T06:36:24;6.50;;;2.80;;
9420;SDS011;4749;51.398;5.466;2022-10-26T06:38:58;6.80;;;2.97;;
9420;SDS011;4749;51.398;5.466;2022-10-26T06:41:35;7.87;;;2.87;;
9420;SDS011;4749;51.398;5.466;2022-10-26T06:44:04;7.50;;;2.33;;
9420;SDS011;4749;51.398;5.466;2022-10-26T06:49:39;9.27;;;4.15;;
9420;SDS011;4749;51.398;5.466;2022-10-26T06:55:39;5.60;;;2.90;;
9420;SDS011;4749;51.398;5.466;2022-10-26T06:58:14;8.10;;;2.38;;
9420;SDS011;4749;51.398;5.466;2022-10-26T07:00:45;5.65;;;2.35;;
9420;SDS011;4749;51.398;5.466;2022-10-26T07:03:15;6.07;;;2.50;;
9420;SDS011;4749;51.398;5.466;2022-10-26T07:05:43;6.22;;;3.28;;
9420;SDS011;4749;51.398;5.466;2022-10-26T07:08:12;4.28;;;2.15;;
9420;SDS011;4749;51.398;5.466;2022-10-26T07:10:39;6.88;;;2.65;;
9420;SDS011;4749;51.398;5.466;2022-10-26T07:13:08;5.40;;;1.98;;
9420;SDS011;4749;51.398;5.466;2022-10-26T07:15:36;8.32;;;2.72;;
9420;SDS011;4749;51.398;5.466;2022-10-26T07:18:05;6.68;;;2.40;;
9420;SDS011;4749;51.398;5.466;2022-10-26T07:20:37;12.02;;;2.40;;
9420;SDS011;4749;51.398;5.466;2022-10-26T07:23:06;4.78;;;2.63;;
9420;SDS011;4749;51.398;5.466;2022-10-26T07:25:37;5.95;;;2.35;;
9420;SDS011;4749;51.398;5.466;2022-10-26T07:28:06;4.30;;;2.67;;
9420;SDS011;4749;51.398;5.466;2022-10-26T07:30:36;5.20;;;2.70;;
9420;SDS011;4749;51.398;5.466;2022-10-26T07:33:09;3.45;;;2.25;;
9420;SDS011;4749;51.398;5.466;2022-10-26T07:35:39;3.80;;;2.22;;
9420;SDS011;4749;51.398;5.466;2022-10-26T07:38:06;6.90;;;2.30;;
9420;SDS011;4749;51.398;5.466;2022-10-26T07:40:35;6.80;;;2.55;;
9420;SDS011;4749;51.398;5.466;2022-10-26T07:43:03;3.63;;;1.90;;
9420;SDS011;4749;51.398;5.466;2022-10-26T07:45:31;2.97;;;2.13;;
9420;SDS011;4749;51.398;5.466;2022-10-26T07:47:59;3.83;;;2.10;;
9420;SDS011;4749;51.398;5.466;2022-10-26T07:50:26;4.38;;;2.33;;
9420;SDS011;4749;51.398;5.466;2022-10-26T07:52:54;4.80;;;2.42;;
9420;SDS011;4749;51.398;5.466;2022-10-26T07:55:21;4.68;;;2.08;;
9420;SDS011;4749;51.398;5.466;2022-10-26T07:57:51;5.57;;;1.95;;
9420;SDS011;4749;51.398;5.466;2022-10-26T08:00:20;6.53;;;1.98;;
9420;SDS011;4749;51.398;5.466;2022-10-26T08:02:48;5.13;;;1.90;;
9420;SDS011;4749;51.398;5.466;2022-10-26T08:05:15;8.85;;;2.50;;
9420;SDS011;4749;51.398;5.466;2022-10-26T08:07:43;3.53;;;1.95;;
9420;SDS011;4749;51.398;5.466;2022-10-26T08:10:11;3.28;;;2.15;;
9420;SDS011;4749;51.398;5.466;2022-10-26T08:12:40;3.45;;;2.13;;
9420;SDS011;4749;51.398;5.466;2022-10-26T08:15:09;3.17;;;1.88;;
9420;SDS011;4749;51.398;5.466;2022-10-26T08:17:36;8.70;;;2.47;;
9420;SDS011;4749;51.398;5.466;2022-10-26T08:20:04;6.40;;;2.08;;
9420;SDS011;4749;51.398;5.466;2022-10-26T08:22:32;5.03;;;1.85;;
9420;SDS011;4749;51.398;5.466;2022-10-26T08:24:59;5.30;;;1.95;;
9420;SDS011;4749;51.398;5.466;2022-10-26T08:27:27;7.03;;;1.70;;
9420;SDS011;4749;51.398;5.466;2022-10-26T08:29:54;7.20;;;2.08;;
9420;SDS011;4749;51.398;5.466;2022-10-26T08:32:21;5.13;;;2.08;;
9420;SDS011;4749;51.398;5.466;2022-10-26T08:34:48;3.42;;;1.63;;
9420;SDS011;4749;51.398;5.466;2022-10-26T08:37:15;6.68;;;1.90;;
9420;SDS011;4749;51.398;5.466;2022-10-26T08:39:42;8.40;;;2.00;;
9420;SDS011;4749;51.398;5.466;2022-10-26T08:42:13;6.05;;;1.55;;
9420;SDS011;4749;51.398;5.466;2022-10-26T08:44:55;4.32;;;1.50;;
9420;SDS011;4749;51.398;5.466;2022-10-26T08:47:43;5.47;;;1.95;;
9420;SDS011;4749;51.398;5.466;2022-10-26T08:50:30;8.80;;;1.55;;
9420;SDS011;4749;51.398;5.466;2022-10-26T08:55:59;2.53;;;1.50;;
9420;SDS011;4749;51.398;5.466;2022-10-26T08:59:06;9.85;;;1.80;;
9420;SDS011;4749;51.398;5.466;2022-10-26T09:01:53;3.17;;;1.23;;
9420;SDS011;4749;51.398;5.466;2022-10-26T09:04:24;4.93;;;1.60;;
9420;SDS011;4749;51.398;5.466;2022-10-26T09:15:47;9.43;;;2.10;;
9420;SDS011;4749;51.398;5.466;2022-10-26T09:18:49;2.35;;;1.55;;
9420;SDS011;4749;51.398;5.466;2022-10-26T09:21:59;3.83;;;1.45;;
9420;SDS011;4749;51.398;5.466;2022-10-26T09:25:19;11.18;;;1.77;;
9420;SDS011;4749;51.398;5.466;2022-10-26T09:27:50;4.35;;;1.55;;
9420;SDS011;4749;51.398;5.466;2022-10-26T09:30:24;4.85;;;1.70;;
9420;SDS011;4749;51.398;5.466;2022-10-26T09:32:52;3.90;;;1.70;;
9420;SDS011;4749;51.398;5.466;2022-10-26T09:35:30;4.35;;;1.58;;
9420;SDS011;4749;51.398;5.466;2022-10-26T09:50:16;3.13;;;1.65;;
9420;SDS011;4749;51.398;5.466;2022-10-26T09:53:00;6.50;;;1.83;;
9420;SDS011;4749;51.398;5.466;2022-10-26T09:55:29;7.50;;;2.30;;
9420;SDS011;4749;51.398;5.466;2022-10-26T09:58:00;3.38;;;1.48;;
9420;SDS011;4749;51.398;5.466;2022-10-26T10:00:31;2.25;;;1.10;;
9420;SDS011;4749;51.398;5.466;2022-10-26T10:03:00;3.45;;;1.67;;
9420;SDS011;4749;51.398;5.466;2022-10-26T10:05:29;4.57;;;1.65;;
9420;SDS011;4749;51.398;5.466;2022-10-26T10:08:19;7.88;;;1.60;;
9420;SDS011;4749;51.398;5.466;2022-10-26T10:13:40;4.55;;;1.73;;
9420;SDS011;4749;51.398;5.466;2022-10-26T10:16:18;4.43;;;1.60;;
9420;SDS011;4749;51.398;5.466;2022-10-26T10:18:57;5.13;;;1.30;;
9420;SDS011;4749;51.398;5.466;2022-10-26T10:21:35;10.48;;;1.58;;
9420;SDS011;4749;51.398;5.466;2022-10-26T10:24:26;5.32;;;2.03;;
9420;SDS011;4749;51.398;5.466;2022-10-26T10:29:39;3.55;;;1.50;;
9420;SDS011;4749;51.398;5.466;2022-10-26T10:32:24;3.67;;;1.35;;
9420;SDS011;4749;51.398;5.466;2022-10-26T10:35:05;2.42;;;1.25;;
9420;SDS011;4749;51.398;5.466;2022-10-26T10:37:55;5.95;;;1.52;;
9420;SDS011;4749;51.398;5.466;2022-10-26T10:40:26;3.95;;;1.45;;
9420;SDS011;4749;51.398;5.466;2022-10-26T10:43:04;7.50;;;2.97;;
9420;SDS011;4749;51.398;5.466;2022-10-26T10:45:38;3.30;;;1.30;;
9420;SDS011;4749;51.398;5.466;2022-10-26T10:48:14;3.17;;;1.42;;
9420;SDS011;4749;51.398;5.466;2022-10-26T10:53:46;2.17;;;1.10;;
9420;SDS011;4749;51.398;5.466;2022-10-26T10:56:33;2.83;;;1.25;;
9420;SDS011;4749;51.398;5.466;2022-10-26T10:59:11;5.55;;;1.38;;
9420;SDS011;4749;51.398;5.466;2022-10-26T11:08:08;5.50;;;1.30;;
9420;SDS011;4749;51.398;5.466;2022-10-26T11:10:41;2.60;;;1.30;;
9420;SDS011;4749;51.398;5.466;2022-10-26T11:13:24;3.75;;;1.20;;
9420;SDS011;4749;51.398;5.466;2022-10-26T11:16:00;7.38;;;1.23;;
9420;SDS011;4749;51.398;5.466;2022-10-26T11:19:06;3.00;;;1.08;;
9420;SDS011;4749;51.398;5.466;2022-10-26T11:21:48;2.65;;;1.20;;
9420;SDS011;4749;51.398;5.466;2022-10-26T11:24:25;6.55;;;1.30;;
9420;SDS011;4749;51.398;5.466;2022-10-26T11:27:16;3.88;;;1.50;;
9420;SDS011;4749;51.398;5.466;2022-10-26T11:32:48;4.30;;;1.27;;
9420;SDS011;4749;51.398;5.466;2022-10-26T11:38:03;3.15;;;0.90;;
9420;SDS011;4749;51.398;5.466;2022-10-26T11:46:49;4.50;;;1.15;;
9420;SDS011;4749;51.398;5.466;2022-10-26T11:49:41;2.25;;;1.13;;
9420;SDS011;4749;51.398;5.466;2022-10-26T11:52:51;7.18;;;1.42;;
9420;SDS011;4749;51.398;5.466;2022-10-26T11:55:23;3.35;;;1.10;;
9420;SDS011;4749;51.398;5.466;2022-10-26T11:57:51;4.40;;;1.00;;
9420;SDS011;4749;51.398;5.466;2022-10-26T12:00:20;3.63;;;1.30;;
9420;SDS011;4749;51.398;5.466;2022-10-26T12:02:52;3.00;;;1.20;;
9420;SDS011;4749;51.398;5.466;2022-10-26T12:08:37;2.17;;;1.05;;
9420;SDS011;4749;51.398;5.466;2022-10-26T12:18:25;7.13;;;1.17;;
9420;SDS011;4749;51.398;5.466;2022-10-26T12:21:23;3.88;;;1.10;;
9420;SDS011;4749;51.398;5.466;2022-10-26T12:23:59;2.78;;;1.00;;
9420;SDS011;4749;51.398;5.466;2022-10-26T12:27:03;3.95;;;1.13;;
9420;SDS011;4749;51.398;5.466;2022-10-26T12:29:44;3.30;;;0.90;;
9420;SDS011;4749;51.398;5.466;2022-10-26T12:35:00;2.63;;;1.00;;
9420;SDS011;4749;51.398;5.466;2022-10-26T12:37:50;2.67;;;0.98;;
9420;SDS011;4749;51.398;5.466;2022-10-26T12:45:41;5.15;;;1.13;;
9420;SDS011;4749;51.398;5.466;2022-10-26T12:56:25;4.13;;;0.82;;
9420;SDS011;4749;51.398;5.466;2022-10-26T13:08:08;1.95;;;0.90;;
9420;SDS011;4749;51.398;5.466;2022-10-26T13:10:39;3.35;;;1.00;;
9420;SDS011;4749;51.398;5.466;2022-10-26T13:13:27;3.10;;;0.95;;
9420;SDS011;4749;51.398;5.466;2022-10-26T13:15:57;2.05;;;1.10;;
9420;SDS011;4749;51.398;5.466;2022-10-26T13:18:25;1.65;;;0.93;;
9420;SDS011;4749;51.398;5.466;2022-10-26T13:21:02;3.65;;;1.17;;
9420;SDS011;4749;51.398;5.466;2022-10-26T13:23:37;3.88;;;1.00;;
9420;SDS011;4749;51.398;5.466;2022-10-26T13:26:12;2.50;;;1.00;;
9420;SDS011;4749;51.398;5.466;2022-10-26T13:34:10;2.65;;;1.25;;
9420;SDS011;4749;51.398;5.466;2022-10-26T13:39:56;1.80;;;0.82;;
9420;SDS011;4749;51.398;5.466;2022-10-26T13:42:26;5.15;;;0.98;;
9420;SDS011;4749;51.398;5.466;2022-10-26T13:45:04;3.35;;;0.90;;
9420;SDS011;4749;51.398;5.466;2022-10-26T13:51:09;8.38;;;1.10;;
9420;SDS011;4749;51.398;5.466;2022-10-26T13:53:58;2.65;;;1.02;;
9420;SDS011;4749;51.398;5.466;2022-10-26T13:56:43;3.92;;;1.10;;
9420;SDS011;4749;51.398;5.466;2022-10-26T13:59:39;2.17;;;0.95;;
9420;SDS011;4749;51.398;5.466;2022-10-26T14:04:52;5.88;;;1.02;;
9420;SDS011;4749;51.398;5.466;2022-10-26T14:07:35;3.28;;;0.98;;
9420;SDS011;4749;51.398;5.466;2022-10-26T14:10:28;3.88;;;1.00;;
9420;SDS011;4749;51.398;5.466;2022-10-26T14:13:02;2.55;;;1.02;;
9420;SDS011;4749;51.398;5.466;2022-10-26T14:15:34;0.98;;;0.77;;
9420;SDS011;4749;51.398;5.466;2022-10-26T14:18:04;3.88;;;0.90;;
9420;SDS011;4749;51.398;5.466;2022-10-26T14:20:31;6.43;;;1.27;;
9420;SDS011;4749;51.398;5.466;2022-10-26T14:22:58;3.85;;;1.02;;
9420;SDS011;4749;51.398;5.466;2022-10-26T14:25:26;3.00;;;1.05;;
9420;SDS011;4749;51.398;5.466;2022-10-26T14:28:23;5.20;;;1.00;;
9420;SDS011;4749;51.398;5.466;2022-10-26T14:31:10;4.10;;;1.00;;
9420;SDS011;4749;51.398;5.466;2022-10-26T14:33:48;2.42;;;0.88;;
9420;SDS011;4749;51.398;5.466;2022-10-26T14:36:18;7.82;;;1.40;;
9420;SDS011;4749;51.398;5.466;2022-10-26T14:38:53;3.05;;;0.90;;
9420;SDS011;4749;51.398;5.466;2022-10-26T14:41:26;2.75;;;0.98;;
9420;SDS011;4749;51.398;5.466;2022-10-26T14:43:55;3.33;;;1.00;;
9420;SDS011;4749;51.398;5.466;2022-10-26T14:46:25;6.05;;;1.30;;
9420;SDS011;4749;51.398;5.466;2022-10-26T14:48:58;2.30;;;1.00;;
9420;SDS011;4749;51.398;5.466;2022-10-26T14:51:28;2.35;;;0.90;;
9420;SDS011;4749;51.398;5.466;2022-10-26T14:54:01;4.53;;;0.80;;
9420;SDS011;4749;51.398;5.466;2022-10-26T14:56:30;3.70;;;0.98;;
9420;SDS011;4749;51.398;5.466;2022-10-26T14:59:18;2.35;;;1.17;;
9420;SDS011;4749;51.398;5.466;2022-10-26T15:01:47;2.10;;;0.90;;
9420;SDS011;4749;51.398;5.466;2022-10-26T15:07:00;5.43;;;0.88;;
9420;SDS011;4749;51.398;5.466;2022-10-26T15:09:38;3.85;;;1.10;;
9420;SDS011;4749;51.398;5.466;2022-10-26T15:15:05;2.22;;;1.23;;
9420;SDS011;4749;51.398;5.466;2022-10-26T15:17:55;2.97;;;1.10;;
9420;SDS011;4749;51.398;5.466;2022-10-26T15:20:26;2.83;;;0.90;;
9420;SDS011;4749;51.398;5.466;2022-10-26T15:22:58;3.08;;;0.90;;
9420;SDS011;4749;51.398;5.466;2022-10-26T15:25:28;2.92;;;1.20;;
9420;SDS011;4749;51.398;5.466;2022-10-26T15:31:07;3.75;;;0.90;;
9420;SDS011;4749;51.398;5.466;2022-10-26T15:36:19;4.22;;;1.02;;
9420;SDS011;4749;51.398;5.466;2022-10-26T15:38:51;3.80;;;0.82;;
9420;SDS011;4749;51.398;5.466;2022-10-26T15:41:34;4.20;;;1.10;;
9420;SDS011;4749;51.398;5.466;2022-10-26T15:44:19;3.70;;;0.90;;
9420;SDS011;4749;51.398;5.466;2022-10-26T15:46:47;3.55;;;1.15;;
9420;SDS011;4749;51.398;5.466;2022-10-26T15:49:18;4.70;;;1.02;;
9420;SDS011;4749;51.398;5.466;2022-10-26T15:51:46;5.80;;;1.40;;
9420;SDS011;4749;51.398;5.466;2022-10-26T15:54:14;11.80;;;1.48;;
9420;SDS011;4749;51.398;5.466;2022-10-26T15:56:41;5.78;;;1.40;;
9420;SDS011;4749;51.398;5.466;2022-10-26T15:59:10;4.82;;;1.48;;
9420;SDS011;4749;51.398;5.466;2022-10-26T16:01:42;3.75;;;1.20;;
9420;SDS011;4749;51.398;5.466;2022-10-26T16:04:09;4.15;;;1.50;;
9420;SDS011;4749;51.398;5.466;2022-10-26T16:06:37;2.78;;;1.20;;
9420;SDS011;4749;51.398;5.466;2022-10-26T16:09:09;2.92;;;1.08;;
9420;SDS011;4749;51.398;5.466;2022-10-26T16:11:43;3.95;;;1.42;;
9420;SDS011;4749;51.398;5.466;2022-10-26T16:14:10;3.22;;;1.20;;
9420;SDS011;4749;51.398;5.466;2022-10-26T16:16:38;6.95;;;1.35;;
9420;SDS011;4749;51.398;5.466;2022-10-26T16:19:08;4.80;;;1.98;;
9420;SDS011;4749;51.398;5.466;2022-10-26T16:21:56;5.95;;;1.42;;
9420;SDS011;4749;51.398;5.466;2022-10-26T16:24:23;6.57;;;1.10;;
9420;SDS011;4749;51.398;5.466;2022-10-26T16:26:52;4.97;;;1.20;;
9420;SDS011;4749;51.398;5.466;2022-10-26T16:29:19;4.75;;;1.10;;
9420;SDS011;4749;51.398;5.466;2022-10-26T16:31:47;3.88;;;1.63;;
9420;SDS011;4749;51.398;5.466;2022-10-26T16:34:14;7.15;;;1.40;;
9420;SDS011;4749;51.398;5.466;2022-10-26T16:36:41;3.60;;;1.30;;
9420;SDS011;4749;51.398;5.466;2022-10-26T16:39:10;8.00;;;1.70;;
9420;SDS011;4749;51.398;5.466;2022-10-26T16:41:38;6.45;;;1.60;;
9420;SDS011;4749;51.398;5.466;2022-10-26T16:44:05;3.85;;;1.77;;
9420;SDS011;4749;51.398;5.466;2022-10-26T16:46:32;4.80;;;2.00;;
9420;SDS011;4749;51.398;5.466;2022-10-26T16:48:59;8.00;;;2.42;;
9420;SDS011;4749;51.398;5.466;2022-10-26T16:51:26;5.28;;;2.65;;
9420;SDS011;4749;51.398;5.466;2022-10-26T16:53:54;8.52;;;2.63;;
9420;SDS011;4749;51.398;5.466;2022-10-26T16:56:23;6.45;;;2.05;;
9420;SDS011;4749;51.398;5.466;2022-10-26T16:58:55;7.13;;;2.13;;
9420;SDS011;4749;51.398;5.466;2022-10-26T17:01:22;5.45;;;2.38;;
9420;SDS011;4749;51.398;5.466;2022-10-26T17:03:50;7.95;;;1.98;;
9420;SDS011;4749;51.398;5.466;2022-10-26T17:06:18;12.23;;;2.22;;
9420;SDS011;4749;51.398;5.466;2022-10-26T17:08:46;5.35;;;1.90;;
9420;SDS011;4749;51.398;5.466;2022-10-26T17:11:17;10.25;;;2.20;;
9420;SDS011;4749;51.398;5.466;2022-10-26T17:13:46;8.82;;;2.28;;
9420;SDS011;4749;51.398;5.466;2022-10-26T17:16:21;6.75;;;2.15;;
9420;SDS011;4749;51.398;5.466;2022-10-26T17:18:49;4.80;;;1.77;;
9420;SDS011;4749;51.398;5.466;2022-10-26T17:21:18;14.48;;;1.80;;
9420;SDS011;4749;51.398;5.466;2022-10-26T17:23:57;6.07;;;1.77;;
9420;SDS011;4749;51.398;5.466;2022-10-26T17:26:25;5.45;;;2.33;;
9420;SDS011;4749;51.398;5.466;2022-10-26T17:28:53;7.25;;;2.60;;
9420;SDS011;4749;51.398;5.466;2022-10-26T17:31:22;4.05;;;2.08;;
9420;SDS011;4749;51.398;5.466;2022-10-26T17:33:51;7.05;;;1.98;;
9420;SDS011;4749;51.398;5.466;2022-10-26T17:36:20;6.97;;;2.13;;
9420;SDS011;4749;51.398;5.466;2022-10-26T17:38:49;2.90;;;2.03;;
9420;SDS011;4749;51.398;5.466;2022-10-26T17:41:21;8.38;;;2.58;;
9420;SDS011;4749;51.398;5.466;2022-10-26T17:43:49;8.38;;;2.88;;
9420;SDS011;4749;51.398;5.466;2022-10-26T17:46:23;11.00;;;2.67;;
9420;SDS011;4749;51.398;5.466;2022-10-26T17:48:55;8.25;;;2.97;;
9420;SDS011;4749;51.398;5.466;2022-10-26T17:51:25;4.53;;;1.85;;
9420;SDS011;4749;51.398;5.466;2022-10-26T17:53:53;6.95;;;2.30;;
9420;SDS011;4749;51.398;5.466;2022-10-26T17:56:23;10.07;;;2.65;;
9420;SDS011;4749;51.398;5.466;2022-10-26T17:58:53;6.95;;;2.70;;
9420;SDS011;4749;51.398;5.466;2022-10-26T18:01:23;5.57;;;1.83;;
9420;SDS011;4749;51.398;5.466;2022-10-26T18:03:52;10.90;;;3.08;;
9420;SDS011;4749;51.398;5.466;2022-10-26T18:06:20;9.98;;;2.20;;
9420;SDS011;4749;51.398;5.466;2022-10-26T18:08:47;10.10;;;2.58;;
9420;SDS011;4749;51.398;5.466;2022-10-26T18:11:17;7.78;;;2.35;;
9420;SDS011;4749;51.398;5.466;2022-10-26T18:13:55;8.90;;;2.45;;
9420;SDS011;4749;51.398;5.466;2022-10-26T18:16:24;8.68;;;2.30;;
9420;SDS011;4749;51.398;5.466;2022-10-26T18:19:00;9.35;;;2.33;;
9420;SDS011;4749;51.398;5.466;2022-10-26T18:21:31;11.27;;;2.42;;
9420;SDS011;4749;51.398;5.466;2022-10-26T18:24:06;9.77;;;2.40;;
9420;SDS011;4749;51.398;5.466;2022-10-26T18:26:37;7.15;;;2.83;;
9420;SDS011;4749;51.398;5.466;2022-10-26T18:29:04;9.52;;;2.50;;
9420;SDS011;4749;51.398;5.466;2022-10-26T18:31:32;10.15;;;2.83;;
9420;SDS011;4749;51.398;5.466;2022-10-26T18:34:03;6.68;;;2.60;;
9420;SDS011;4749;51.398;5.466;2022-10-26T18:36:31;5.57;;;2.78;;
9420;SDS011;4749;51.398;5.466;2022-10-26T18:39:06;11.90;;;3.15;;